Latest Weather Observations for Fortescue Dave Forrest

IDW60801

Issued at 11:04 pm WST Friday 28 February 2020 (issued every 10 minutes, with the page automatically refreshed every 10 minutes)

About weather observations | Map of weather stations | Latest weather observations for WA | Other Formats
Station Details ID: 505056 Name: FORTESCUE DAVE FORREST Lat: -22.29 Lon: 119.43 Height: 474.6 m
Data from the previous 72 hours. | See also: Recent months for locations in Western Australia
Date/Time
WST
Temp
°C
App
Temp
°C
Dew
Point
°C
Rel
Hum
%
Delta-T
°C
Wind Press
QNH
hPa
Press
MSL
hPa
Rain since
9am
mm
Dir  Spd
km/h
Gust
km/h
Spd
kts
Gust
kts
28/11:00pm 32.1 - 18.3 44 9.1 - - - - - 1008.2 1004.3 0.0
28/10:30pm 32.6 34.5 17.6 40 9.8 NW 4 7 2 4 1008.4 1004.5 0.0
28/10:00pm 33.6 35.7 17.3 37 10.6 NNE 2 6 1 3 1008.6 1004.7 0.0
28/09:30pm 32.5 34.3 17.5 40 9.8 WNW 4 6 2 3 1008.4 1004.5 0.0
28/09:00pm 32.6 33.9 17.6 40 9.8 SW 7 11 4 6 1008.2 1004.3 0.0
28/08:30pm 33.5 34.7 16.8 36 10.8 W 6 9 3 5 1007.9 1004.0 0.0
28/08:00pm 34.6 35.0 16.4 33 11.8 W 9 15 5 8 1007.6 1003.6 0.0
28/07:30pm 35.5 36.1 15.8 31 12.6 WSW 7 7 4 4 1007.2 1003.2 0.0
28/07:00pm 37.2 37.2 16.2 29 13.7 W 11 17 6 9 1006.8 1002.8 0.0
28/06:30pm 37.8 36.2 16.1 27 14.1 NW 19 24 10 13 1006.4 1002.5 0.0
28/06:00pm 38.6 - 14.4 24 15.4 - - - - - 1006.0 1002.1 0.0
28/05:30pm 38.9 - 14.7 24 15.5 - - - - - 1005.6 1001.6 0.0
28/05:00pm 39.4 39.5 14.4 22 16.0 W 7 17 4 9 1005.3 1001.3 0.0
28/04:30pm 39.0 - 15.4 25 15.2 - - - - - 1005.6 1001.6 0.0
28/04:00pm 38.0 - 15.7 26 14.4 - - - - - 1005.7 1001.7 0.0
28/03:30pm 39.9 39.0 14.8 22 16.1 ENE 13 20 7 11 1005.8 1001.9 0.0
28/03:00pm 40.1 38.6 14.3 22 16.5 NE 15 28 8 15 1006.1 1002.2 0.0
28/02:30pm 39.9 38.2 14.8 22 16.1 ENE 17 28 9 15 1006.4 1002.5 0.0
28/02:00pm 39.9 38.9 15.5 24 15.8 ENE 15 32 8 17 1006.8 1002.8 0.0
28/01:30pm 39.3 37.3 15.0 24 15.6 NE 19 33 10 18 1007.3 1003.3 0.0
28/01:00pm 39.6 38.1 15.2 23 15.8 E 17 32 9 17 1007.8 1003.9 0.0
28/12:30pm 38.3 38.3 17.1 28 14.0 NE 13 20 7 11 1008.3 1004.4 0.0
28/12:00pm 38.0 36.9 16.3 27 14.2 NE 17 35 9 19 1008.8 1004.9 0.0
28/11:30am 38.1 38.4 18.0 30 13.4 E 13 26 7 14 1009.2 1005.2 0.0
28/11:00am 37.4 37.5 17.4 30 13.2 E 13 19 7 10 1009.3 1005.3 0.0
28/10:30am 36.1 37.5 20.4 40 10.7 ESE 13 19 7 10 1009.7 1005.8 0.0
28/10:00am 35.1 36.5 21.0 43 9.7 ESE 15 19 8 10 1010.0 1006.1 0.0
28/09:30am 33.9 35.6 21.7 49 8.4 SE 15 17 8 9 1010.2 1006.3 0.0
28/09:00am 33.3 - 22.1 52 7.8 - - - - - 1010.1 1006.2 0.0
28/08:30am 31.1 - 22.1 58 6.2 - - - - - 1010.1 1006.2 0.0
28/08:00am 29.7 - 22.4 65 5.0 - - - - - 1010.0 1006.1 0.0
28/07:30am 28.9 - 22.2 67 4.6 - - - - - 1010.0 1006.1 0.0
28/07:00am 28.0 30.8 21.5 67 4.4 SW 9 13 5 7 1009.7 1005.8 0.0
28/06:30am 27.1 30.6 21.8 73 3.6 WSW 6 9 3 5 1009.5 1005.5 0.0
28/06:00am 26.9 30.2 21.9 74 3.4 W 7 9 4 5 1009.4 1005.4 0.0
28/05:30am 27.1 30.4 21.8 73 3.6 W 7 7 4 4 1009.5 1005.5 0.0
28/05:00am 27.4 30.7 21.9 72 3.8 W 7 11 4 6 1009.3 1005.3 0.0
28/04:30am 27.8 - 21.8 70 4.1 - - - - - 1009.5 1005.5 0.0
28/04:00am 27.7 30.0 22.0 71 3.9 WNW 13 20 7 11 1008.7 1004.8 0.0
28/03:30am 27.9 30.3 22.2 71 3.9 WNW 13 20 7 11 1008.7 1004.8 0.0
28/03:00am 28.2 30.2 22.2 70 4.1 WNW 15 19 8 10 1008.8 1004.9 0.0
28/02:30am 28.5 29.8 22.3 69 4.3 N 19 20 10 11 1009.4 1005.4 0.0
28/02:00am 29.2 30.2 22.2 66 4.8 N 20 32 11 17 1010.0 1006.1 0.0
28/01:30am 29.8 30.8 21.7 61 5.5 N 19 24 10 13 1010.3 1006.4 0.0
28/01:00am 29.8 30.2 21.7 61 5.5 NNE 22 33 12 18 1010.5 1006.6 0.0
28/12:30am 30.2 30.2 21.6 60 5.9 NE 24 32 13 17 1010.2 1006.3 0.0
28/12:00am 31.1 32.3 20.7 54 7.1 N 15 20 8 11 1009.5 1005.5 0.0
 
Date/Time
WST
Temp
°C
App
Temp
°C
Dew
Point
°C
Rel
Hum
%
Delta-T
°C
Wind Press
QNH
hPa
Press
MSL
hPa
Rain since
9am
mm
Dir  Spd
km/h
Gust
km/h
Spd
kts
Gust
kts
27/11:30pm 32.2 32.8 17.7 42 9.5 NW 11 15 6 8 1009.2 1005.2 0.0
27/11:00pm 32.9 33.2 17.1 39 10.3 WNW 11 13 6 7 1009.1 1005.1 0.0
27/10:30pm 33.2 33.3 16.5 36 10.8 W 11 15 6 8 1008.8 1004.9 0.0
27/10:00pm 32.8 33.1 17.0 38 10.2 WNW 11 15 6 8 1008.9 1005.0 0.0
27/09:30pm 33.4 33.6 16.7 36 10.8 WNW 11 13 6 7 1008.8 1004.9 0.0
27/09:00pm 33.6 - 16.9 37 10.8 - - - - - 1008.5 1004.6 0.0
27/08:30pm 33.5 34.1 17.6 38 10.4 WNW 11 13 6 7 1008.3 1004.4 0.0
27/08:00pm 35.3 36.8 16.6 33 12.2 WNW 4 7 2 4 1008.0 1004.1 0.0
27/07:30pm 35.3 36.4 17.0 33 11.9 NNW 7 9 4 5 1007.8 1003.9 0.0
27/07:00pm 36.6 37.3 15.7 29 13.5 NW 6 7 3 4 1007.4 1003.4 0.0
27/06:30pm 37.4 37.8 14.7 26 14.4 N 6 9 3 5 1007.3 1003.3 0.0
27/06:00pm 38.9 39.0 14.0 23 15.8 NNE 6 9 3 5 1007.2 1003.2 0.0
27/05:30pm 39.5 37.9 13.8 22 16.3 NNE 15 22 8 12 1007.0 1003.0 0.0
27/05:00pm 39.8 36.8 12.6 20 17.0 NNE 20 30 11 16 1006.9 1002.9 0.0
27/04:30pm 40.2 38.6 12.9 20 17.1 NE 13 22 7 12 1007.0 1003.0 0.0
27/04:00pm 40.2 39.0 12.9 20 17.1 ENE 11 24 6 13 1007.0 1003.0 0.0
27/03:30pm 39.5 37.9 13.8 22 16.3 NNE 15 24 8 13 1007.0 1003.0 0.0
27/03:00pm 39.8 38.6 14.1 22 16.4 ENE 13 24 7 13 1007.2 1003.2 0.0
27/02:30pm 39.6 37.9 14.6 23 16.0 ENE 17 28 9 15 1007.5 1003.5 0.0
27/02:00pm 39.6 37.6 13.9 22 16.3 ENE 17 28 9 15 1007.7 1003.8 0.0
27/01:30pm 39.1 36.8 14.2 23 15.8 ENE 19 32 10 17 1008.0 1004.1 0.0
27/01:00pm 38.5 36.7 15.6 26 14.8 ENE 19 32 10 17 1008.4 1004.5 0.0
27/12:30pm 38.5 38.3 16.7 27 14.3 NE 13 22 7 12 1008.9 1005.0 0.0
27/12:00pm 37.5 38.2 17.0 30 13.5 ENE 9 20 5 11 1009.4 1005.4 0.0
27/11:30am 36.1 36.9 17.3 33 12.3 ENE 9 19 5 10 1009.7 1005.8 0.0
27/11:00am 35.3 35.8 18.4 37 11.2 E 13 20 7 11 1010.0 1006.1 0.0
27/10:30am 34.4 34.3 18.8 39 10.4 E 17 22 9 12 1010.4 1006.5 0.0
27/10:00am 33.4 33.1 19.1 42 9.6 E 19 22 10 12 1010.5 1006.6 0.0
27/09:30am 32.6 - 19.8 46 8.6 - - - - - 1010.6 1006.7 0.0
27/09:00am 31.4 - 21.3 55 6.9 - - - - - 1010.7 1006.8 -
27/08:30am 30.6 - 21.7 59 6.1 - - - - - 1010.5 1006.6 -
27/05:30am 25.9 - 22.0 79 2.7 - - - - - 1009.1 1005.1 0.0
27/05:00am 27.0 - 21.5 72 3.7 - - - - - 1008.5 1004.6 0.0
27/04:30am 26.3 - 22.2 78 2.8 - - - - - 1008.5 1004.6 0.0
27/04:00am 26.5 - 22.1 77 3.0 - - - - - 1008.5 1004.6 0.0
27/03:30am 26.9 29.7 22.3 76 3.2 NNW 11 15 6 8 1008.4 1004.5 0.0
27/03:00am 27.1 30.8 22.5 76 3.2 N 7 11 4 6 1008.2 1004.3 0.0
27/02:30am 27.5 31.5 22.7 75 3.3 NNW 6 7 3 4 1008.2 1004.3 0.0
27/02:00am 27.8 31.2 22.7 74 3.5 N 9 13 5 7 1008.3 1004.4 0.0
27/01:30am 28.6 32.3 22.3 68 4.3 NNE 6 9 3 5 1008.4 1004.5 0.0
27/01:00am 28.5 32.4 22.5 70 4.1 NNW 6 7 3 4 1008.4 1004.5 0.0
27/12:30am 29.2 32.7 21.9 64 5.0 NW 6 7 3 4 1008.7 1004.8 0.0
27/12:00am 29.6 32.7 21.5 61 5.5 NW 7 11 4 6 1008.8 1004.9 0.0
 
Date/Time
WST
Temp
°C
App
Temp
°C
Dew
Point
°C
Rel
Hum
%
Delta-T
°C
Wind Press
QNH
hPa
Press
MSL
hPa
Rain since
9am
mm
Dir  Spd
km/h
Gust
km/h
Spd
kts
Gust
kts
26/11:30pm 30.1 32.0 19.8 54 6.9 WNW 9 13 5 7 1008.6 1004.7 0.0
26/11:00pm 31.2 32.5 18.5 46 8.4 WNW 9 13 5 7 1009.1 1005.1 0.0
26/10:30pm 31.4 32.3 16.2 40 9.7 WNW 6 9 3 5 1008.8 1004.9 0.0
26/10:00pm 31.0 32.0 15.4 38 9.8 WNW 4 6 2 3 1008.8 1004.9 0.0
26/09:30pm 31.9 32.4 15.0 36 10.6 WNW 6 6 3 3 1008.7 1004.8 0.0
26/09:00pm 32.5 33.7 15.9 36 10.6 NW 4 4 2 2 1008.8 1004.9 0.0
26/08:30pm 32.3 32.8 14.9 35 10.9 N 6 7 3 4 1008.5 1004.6 0.0
26/08:00pm 33.6 33.2 13.1 29 12.6 NNE 7 7 4 4 1008.5 1004.6 0.0
26/07:30pm 34.5 33.7 11.6 25 13.8 NNE 7 9 4 5 1008.2 1004.3 0.0
26/07:00pm 35.7 34.6 10.7 22 15.0 NE 7 13 4 7 1007.8 1003.9 0.0
26/06:30pm 37.4 35.1 9.1 18 16.6 NE 11 15 6 8 1007.6 1003.6 0.0
26/06:00pm 38.8 35.6 8.5 16 17.8 NE 15 22 8 12 1007.4 1003.4 0.0
26/05:30pm 39.5 35.8 8.1 15 18.3 ENE 17 22 9 12 1007.3 1003.3 0.0
26/05:00pm 39.9 35.7 7.4 14 18.9 ENE 19 28 10 15 1007.3 1003.3 0.0
26/04:30pm 39.9 35.9 8.4 15 18.5 ENE 19 28 10 15 1007.2 1003.2 0.0
26/04:00pm 39.9 36.3 8.4 15 18.6 NE 17 26 9 14 1007.3 1003.3 0.0
26/03:30pm 39.6 35.0 8.1 15 18.4 ENE 22 33 12 18 1007.5 1003.5 0.0
26/03:00pm 40.2 35.2 6.5 13 19.3 ENE 22 41 12 22 1007.6 1003.6 0.0
26/02:30pm 39.9 34.6 8.4 15 18.5 NE 26 37 14 20 1007.8 1003.9 0.0
26/02:00pm 40.3 35.2 7.7 14 19.0 ENE 24 37 13 20 1007.8 1003.9 0.0
26/01:30pm 39.9 35.4 8.4 15 18.5 NE 22 39 12 21 1008.0 1004.1 0.0
26/01:00pm 40.0 35.6 10.3 17 18.0 ENE 24 39 13 21 1008.4 1004.5 0.0
26/12:30pm 38.9 35.9 12.6 21 16.3 NE 20 33 11 18 1009.1 1005.1 0.0
26/12:00pm 38.6 35.7 12.4 21 16.2 NE 19 28 10 15 1009.6 1005.6 0.0
26/11:30am 37.5 37.2 16.4 28 13.7 E 13 22 7 12 1010.1 1006.2 0.0
26/11:00am 36.7 36.5 16.8 30 13.0 E 13 22 7 12 1010.3 1006.4 0.0
26/10:30am 35.4 36.1 17.1 33 12.0 E 9 15 5 8 1010.5 1006.6 0.0
26/10:00am 34.3 35.9 18.3 38 10.6 ESE 7 15 4 8 1010.7 1006.8 0.0
26/09:30am 33.2 35.3 19.3 44 9.3 E 7 11 4 6 1010.8 1006.9 0.0
26/09:00am 33.0 36.1 20.2 47 8.7 SSE 4 11 2 6 1010.7 1006.8 -
26/08:30am 31.4 34.6 20.4 52 7.4 SSW 4 7 2 4 1010.5 1006.6 -
26/08:00am 29.5 33.1 21.2 61 5.6 W 4 7 2 4 1010.4 1006.5 -
26/07:30am 28.6 33.0 22.1 68 4.5 S 2 4 1 2 1010.2 1006.3 -
26/07:00am 26.3 31.1 22.8 81 2.4 NNW 2 6 1 3 1010.0 1006.1 -
26/06:30am 24.9 28.7 22.4 86 1.7 NNW 6 7 3 4 1009.8 1005.9 -
26/06:00am 24.5 28.5 22.0 86 1.7 NW 4 7 2 4 1009.6 1005.6 -
26/05:30am 25.2 28.5 21.9 82 2.2 S 7 15 4 8 1009.4 1005.4 -
26/05:00am 25.0 28.2 21.7 82 2.2 SSW 7 15 4 8 1009.3 1005.3 -
26/04:30am 26.1 29.0 21.7 77 3.0 NNW 9 11 5 6 1008.6 1004.7 -
26/04:00am 26.4 29.6 21.6 75 3.3 NNE 7 9 4 5 1008.5 1004.6 -
26/03:30am 26.9 29.9 21.2 71 3.8 NNW 7 9 4 5 1008.4 1004.5 -
26/03:00am 27.5 30.5 21.3 69 4.2 NNW 7 9 4 5 1008.3 1004.4 0.0
26/02:30am 27.8 31.0 21.6 69 4.2 NNW 7 9 4 5 1008.5 1004.6 -
26/02:00am 28.2 31.6 21.7 68 4.4 NW 6 9 3 5 1008.8 1004.9 -
26/01:30am 27.9 31.3 21.7 69 4.2 NNW 6 9 3 5 1009.3 1005.3 -
26/01:00am 28.8 31.8 21.3 64 5.1 N 7 11 4 6 1009.6 1005.6 -
26/12:30am 29.3 32.2 21.0 61 5.6 N 7 13 4 7 1009.8 1005.9 -
26/12:00am 29.7 32.0 19.4 54 6.8 NW 6 7 3 4 1009.6 1005.6 -
 
Date/Time
WST
Temp
°C
App
Temp
°C
Dew
Point
°C
Rel
Hum
%
Delta-T
°C
Wind Press
QNH
hPa
Press
MSL
hPa
Rain since
9am
mm
Dir  Spd
km/h
Gust
km/h
Spd
kts
Gust
kts
25/11:30pm 30.3 31.4 17.0 44 8.5 WNW 7 11 4 6 1009.7 1005.8 -

Other formats

Comma delimited format used in spreadsheet applications
http://www.bom.gov.au/fwo/IDW60801/IDW60801.99736.axf

JavaScript Object Notation format (JSON) in row-major order
http://www.bom.gov.au/fwo/IDW60801/IDW60801.99736.json

Data quality

Most of these data are generated automatically and are frequently updated. Quality checks on data are not normally performed. It is possible for incorrect values to appear. Refer to information at About Latest Weather Observations and please check the disclaimer before using these data.